sensor_id;sensor_type;location;lat;lon;timestamp;pressure;altitude;pressure_sealevel;temperature;humidity
81704;BME280;71117;52.352;4.808;2023-12-20T00:01:26;101622.75;;;7.04;87.47
81704;BME280;71117;52.352;4.808;2023-12-20T00:03:51;101629.06;;;7.08;87.18
81704;BME280;71117;52.352;4.808;2023-12-20T00:06:17;101616.31;;;7.17;86.05
81704;BME280;71117;52.352;4.808;2023-12-20T00:08:42;101619.09;;;7.20;87.08
81704;BME280;71117;52.352;4.808;2023-12-20T00:11:09;101620.09;;;7.24;86.69
81704;BME280;71117;52.352;4.808;2023-12-20T00:13:34;101622.34;;;7.14;86.72
81704;BME280;71117;52.352;4.808;2023-12-20T00:15:59;101621.34;;;7.12;86.81
81704;BME280;71117;52.352;4.808;2023-12-20T00:18:24;101627.78;;;7.00;88.35
81704;BME280;71117;52.352;4.808;2023-12-20T00:20:50;101628.69;;;7.00;88.50
81704;BME280;71117;52.352;4.808;2023-12-20T00:23:15;101626.06;;;7.20;87.51
81704;BME280;71117;52.352;4.808;2023-12-20T00:25:41;101627.28;;;7.28;86.38
81704;BME280;71117;52.352;4.808;2023-12-20T00:28:06;101608.69;;;7.23;87.18
81704;BME280;71117;52.352;4.808;2023-12-20T00:30:31;101615.69;;;7.23;86.72
81704;BME280;71117;52.352;4.808;2023-12-20T00:32:57;101619.34;;;7.26;86.31
81704;BME280;71117;52.352;4.808;2023-12-20T00:35:22;101617.28;;;7.19;87.02
81704;BME280;71117;52.352;4.808;2023-12-20T00:37:47;101631.69;;;7.08;87.93
81704;BME280;71117;52.352;4.808;2023-12-20T00:40:12;101637.19;;;7.14;86.52
81704;BME280;71117;52.352;4.808;2023-12-20T00:42:38;101629.91;;;7.28;86.75
81704;BME280;71117;52.352;4.808;2023-12-20T00:45:04;101626.84;;;7.38;86.18
81704;BME280;71117;52.352;4.808;2023-12-20T00:47:32;101617.66;;;7.48;84.86
81704;BME280;71117;52.352;4.808;2023-12-20T00:49:58;101613.66;;;7.36;85.97
81704;BME280;71117;52.352;4.808;2023-12-20T00:52:23;101622.44;;;7.37;85.21
81704;BME280;71117;52.352;4.808;2023-12-20T00:54:49;101611.16;;;7.39;85.88
81704;BME280;71117;52.352;4.808;2023-12-20T00:57:14;101610.41;;;7.23;87.09
81704;BME280;71117;52.352;4.808;2023-12-20T00:59:40;101614.41;;;7.13;87.11
81704;BME280;71117;52.352;4.808;2023-12-20T01:02:05;101619.19;;;7.02;87.98
81704;BME280;71117;52.352;4.808;2023-12-20T01:04:30;101616.56;;;7.02;88.12
81704;BME280;71117;52.352;4.808;2023-12-20T01:06:56;101613.97;;;7.04;87.74
81704;BME280;71117;52.352;4.808;2023-12-20T01:09:21;101618.72;;;7.12;86.54
81704;BME280;71117;52.352;4.808;2023-12-20T01:11:51;101614.94;;;7.25;86.88
81704;BME280;71117;52.352;4.808;2023-12-20T01:14:16;101625.56;;;7.28;87.10
81704;BME280;71117;52.352;4.808;2023-12-20T01:16:42;101624.81;;;7.31;86.34
81704;BME280;71117;52.352;4.808;2023-12-20T01:19:07;101635.38;;;7.32;87.36
81704;BME280;71117;52.352;4.808;2023-12-20T01:21:35;101627.31;;;7.49;86.16
81704;BME280;71117;52.352;4.808;2023-12-20T01:24:00;101619.44;;;7.49;85.86
81704;BME280;71117;52.352;4.808;2023-12-20T01:26:28;101617.13;;;7.56;85.23
81704;BME280;71117;52.352;4.808;2023-12-20T01:28:53;101617.38;;;7.62;84.94
81704;BME280;71117;52.352;4.808;2023-12-20T01:31:19;101610.06;;;7.55;85.06
81704;BME280;71117;52.352;4.808;2023-12-20T01:33:44;101633.28;;;7.65;83.94
81704;BME280;71117;52.352;4.808;2023-12-20T01:36:10;101617.81;;;7.73;83.88
81704;BME280;71117;52.352;4.808;2023-12-20T01:38:36;101615.78;;;7.87;84.63
81704;BME280;71117;52.352;4.808;2023-12-20T01:41:01;101603.56;;;7.89;84.00
81704;BME280;71117;52.352;4.808;2023-12-20T01:43:27;101607.50;;;7.78;84.63
81704;BME280;71117;52.352;4.808;2023-12-20T01:45:52;101603.03;;;7.75;84.36
81704;BME280;71117;52.352;4.808;2023-12-20T01:48:18;101615.78;;;7.66;85.59
81704;BME280;71117;52.352;4.808;2023-12-20T01:50:48;101615.09;;;7.70;84.86
81704;BME280;71117;52.352;4.808;2023-12-20T01:53:14;101605.28;;;7.66;84.96
81704;BME280;71117;52.352;4.808;2023-12-20T01:55:41;101607.56;;;7.79;82.78
81704;BME280;71117;52.352;4.808;2023-12-20T01:58:10;101627.78;;;7.80;83.81
81704;BME280;71117;52.352;4.808;2023-12-20T02:00:37;101600.75;;;7.84;82.96
81704;BME280;71117;52.352;4.808;2023-12-20T02:03:03;101606.66;;;7.79;83.86
81704;BME280;71117;52.352;4.808;2023-12-20T02:05:33;101607.75;;;7.84;84.25
81704;BME280;71117;52.352;4.808;2023-12-20T02:07:59;101610.31;;;7.82;83.48
81704;BME280;71117;52.352;4.808;2023-12-20T02:10:25;101610.13;;;7.78;83.49
81704;BME280;71117;52.352;4.808;2023-12-20T02:12:50;101602.50;;;7.84;83.38
81704;BME280;71117;52.352;4.808;2023-12-20T02:15:16;101599.63;;;7.78;83.39
81704;BME280;71117;52.352;4.808;2023-12-20T02:17:41;101605.25;;;7.87;83.23
81704;BME280;71117;52.352;4.808;2023-12-20T02:20:07;101611.16;;;7.81;84.06
81704;BME280;71117;52.352;4.808;2023-12-20T02:22:32;101600.69;;;7.83;83.26
81704;BME280;71117;52.352;4.808;2023-12-20T02:24:58;101596.59;;;7.89;83.12
81704;BME280;71117;52.352;4.808;2023-12-20T02:27:23;101596.38;;;7.85;83.91
81704;BME280;71117;52.352;4.808;2023-12-20T02:29:49;101597.47;;;7.90;83.10
81704;BME280;71117;52.352;4.808;2023-12-20T02:32:15;101584.00;;;8.03;81.78
81704;BME280;71117;52.352;4.808;2023-12-20T02:34:41;101591.03;;;7.82;82.31
81704;BME280;71117;52.352;4.808;2023-12-20T02:37:07;101586.22;;;7.72;83.17
81704;BME280;71117;52.352;4.808;2023-12-20T02:39:32;101578.59;;;7.78;82.55
81704;BME280;71117;52.352;4.808;2023-12-20T02:41:58;101585.88;;;7.85;83.06
81704;BME280;71117;52.352;4.808;2023-12-20T02:44:23;101582.81;;;7.74;82.57
81704;BME280;71117;52.352;4.808;2023-12-20T02:46:49;101582.06;;;7.77;81.85
81704;BME280;71117;52.352;4.808;2023-12-20T02:49:14;101585.13;;;7.87;82.05
81704;BME280;71117;52.352;4.808;2023-12-20T02:51:40;101586.19;;;7.92;81.69
81704;BME280;71117;52.352;4.808;2023-12-20T02:54:05;101575.88;;;7.97;81.45
81704;BME280;71117;52.352;4.808;2023-12-20T02:56:32;101572.59;;;8.03;81.25
81704;BME280;71117;52.352;4.808;2023-12-20T02:58:57;101565.00;;;8.10;81.68
81704;BME280;71117;52.352;4.808;2023-12-20T03:01:23;101564.81;;;8.06;81.49
81704;BME280;71117;52.352;4.808;2023-12-20T03:03:48;101553.25;;;8.02;81.57
81704;BME280;71117;52.352;4.808;2023-12-20T03:06:17;101548.56;;;7.93;81.04
81704;BME280;71117;52.352;4.808;2023-12-20T03:08:43;101551.94;;;7.91;81.93
81704;BME280;71117;52.352;4.808;2023-12-20T03:11:09;101547.44;;;7.66;83.43
81704;BME280;71117;52.352;4.808;2023-12-20T03:13:34;101549.03;;;7.62;82.56
81704;BME280;71117;52.352;4.808;2023-12-20T03:15:59;101556.16;;;7.65;81.92
81704;BME280;71117;52.352;4.808;2023-12-20T03:18:24;101543.06;;;7.66;82.57
81704;BME280;71117;52.352;4.808;2023-12-20T03:20:50;101545.19;;;7.75;82.51
81704;BME280;71117;52.352;4.808;2023-12-20T03:23:16;101553.66;;;7.68;82.92
81704;BME280;71117;52.352;4.808;2023-12-20T03:25:41;101557.25;;;7.70;83.20
81704;BME280;71117;52.352;4.808;2023-12-20T03:28:06;101576.34;;;7.66;83.65
81704;BME280;71117;52.352;4.808;2023-12-20T03:30:31;101577.13;;;7.63;83.08
81704;BME280;71117;52.352;4.808;2023-12-20T03:32:57;101565.44;;;7.78;82.49
81704;BME280;71117;52.352;4.808;2023-12-20T03:35:22;101561.22;;;7.81;82.41
81704;BME280;71117;52.352;4.808;2023-12-20T03:37:48;101573.94;;;7.93;82.13
81704;BME280;71117;52.352;4.808;2023-12-20T03:40:13;101561.66;;;7.92;81.80
81704;BME280;71117;52.352;4.808;2023-12-20T03:42:38;101555.22;;;8.08;81.57
81704;BME280;71117;52.352;4.808;2023-12-20T03:45:04;101562.88;;;8.02;81.98
81704;BME280;71117;52.352;4.808;2023-12-20T03:47:29;101574.00;;;7.94;81.77
81704;BME280;71117;52.352;4.808;2023-12-20T03:49:55;101568.03;;;7.99;81.52
81704;BME280;71117;52.352;4.808;2023-12-20T03:52:20;101568.28;;;8.05;81.29
81704;BME280;71117;52.352;4.808;2023-12-20T03:54:45;101566.53;;;8.05;81.39
81704;BME280;71117;52.352;4.808;2023-12-20T03:57:10;101555.31;;;8.09;80.28
81704;BME280;71117;52.352;4.808;2023-12-20T03:59:36;101563.91;;;8.05;81.41
81704;BME280;71117;52.352;4.808;2023-12-20T04:02:02;101552.59;;;8.08;81.38
81704;BME280;71117;52.352;4.808;2023-12-20T04:04:27;101554.72;;;8.16;81.66
81704;BME280;71117;52.352;4.808;2023-12-20T04:06:53;101540.28;;;8.07;81.31
81704;BME280;71117;52.352;4.808;2023-12-20T04:09:18;101538.75;;;7.89;81.48
81704;BME280;71117;52.352;4.808;2023-12-20T04:11:46;101550.75;;;7.83;81.48
81704;BME280;71117;52.352;4.808;2023-12-20T04:14:11;101548.25;;;7.86;81.47
81704;BME280;71117;52.352;4.808;2023-12-20T04:16:36;101528.13;;;7.86;82.02
81704;BME280;71117;52.352;4.808;2023-12-20T04:19:02;101535.34;;;7.92;81.13
81704;BME280;71117;52.352;4.808;2023-12-20T04:21:27;101536.72;;;8.05;80.55
81704;BME280;71117;52.352;4.808;2023-12-20T04:23:53;101540.59;;;8.14;80.71
81704;BME280;71117;52.352;4.808;2023-12-20T04:26:18;101547.72;;;8.17;79.91
81704;BME280;71117;52.352;4.808;2023-12-20T04:28:43;101554.66;;;8.15;81.14
81704;BME280;71117;52.352;4.808;2023-12-20T04:31:08;101537.84;;;8.11;80.78
81704;BME280;71117;52.352;4.808;2023-12-20T04:33:34;101551.66;;;8.06;80.32
81704;BME280;71117;52.352;4.808;2023-12-20T04:35:59;101539.88;;;8.18;79.84
81704;BME280;71117;52.352;4.808;2023-12-20T04:38:25;101542.25;;;8.12;80.50
81704;BME280;71117;52.352;4.808;2023-12-20T04:40:51;101533.28;;;8.07;80.75
81704;BME280;71117;52.352;4.808;2023-12-20T04:43:17;101529.66;;;8.04;81.38
81704;BME280;71117;52.352;4.808;2023-12-20T04:45:42;101521.53;;;7.98;81.11
81704;BME280;71117;52.352;4.808;2023-12-20T04:48:07;101523.38;;;8.00;81.41
81704;BME280;71117;52.352;4.808;2023-12-20T04:50:33;101525.31;;;8.04;80.84
81704;BME280;71117;52.352;4.808;2023-12-20T04:52:58;101515.78;;;8.08;80.99
81704;BME280;71117;52.352;4.808;2023-12-20T04:55:23;101511.31;;;8.05;81.46
81704;BME280;71117;52.352;4.808;2023-12-20T04:57:49;101527.97;;;8.06;81.30
81704;BME280;71117;52.352;4.808;2023-12-20T05:00:14;101527.28;;;8.10;81.27
81704;BME280;71117;52.352;4.808;2023-12-20T05:02:40;101520.00;;;8.03;81.50
81704;BME280;71117;52.352;4.808;2023-12-20T05:05:06;101518.59;;;8.12;80.93
81704;BME280;71117;52.352;4.808;2023-12-20T05:07:32;101532.41;;;8.07;81.62
81704;BME280;71117;52.352;4.808;2023-12-20T05:09:58;101515.91;;;8.11;80.49
81704;BME280;71117;52.352;4.808;2023-12-20T05:12:23;101522.13;;;8.13;81.34
81704;BME280;71117;52.352;4.808;2023-12-20T05:14:49;101531.81;;;8.14;80.93
81704;BME280;71117;52.352;4.808;2023-12-20T05:17:14;101523.97;;;8.15;81.32
81704;BME280;71117;52.352;4.808;2023-12-20T05:19:39;101517.88;;;8.16;80.36
81704;BME280;71117;52.352;4.808;2023-12-20T05:22:04;101520.69;;;8.21;79.54
81704;BME280;71117;52.352;4.808;2023-12-20T05:24:30;101514.34;;;8.16;80.34
81704;BME280;71117;52.352;4.808;2023-12-20T05:26:55;101516.97;;;8.16;80.69
81704;BME280;71117;52.352;4.808;2023-12-20T05:29:20;101516.09;;;8.15;79.98
81704;BME280;71117;52.352;4.808;2023-12-20T05:31:46;101522.34;;;8.19;80.16
81704;BME280;71117;52.352;4.808;2023-12-20T05:34:11;101514.72;;;8.25;79.32
81704;BME280;71117;52.352;4.808;2023-12-20T05:36:37;101513.06;;;8.29;79.91
81704;BME280;71117;52.352;4.808;2023-12-20T05:39:02;101507.81;;;8.29;80.65
81704;BME280;71117;52.352;4.808;2023-12-20T05:41:31;101506.81;;;8.25;80.47
81704;BME280;71117;52.352;4.808;2023-12-20T05:43:56;101507.75;;;8.27;80.14
81704;BME280;71117;52.352;4.808;2023-12-20T05:46:25;101516.56;;;8.28;79.57
81704;BME280;71117;52.352;4.808;2023-12-20T05:48:50;101504.41;;;8.31;80.17
81704;BME280;71117;52.352;4.808;2023-12-20T05:51:16;101511.41;;;8.31;80.42
81704;BME280;71117;52.352;4.808;2023-12-20T05:53:42;101491.19;;;8.30;80.23
81704;BME280;71117;52.352;4.808;2023-12-20T05:56:07;101503.66;;;8.35;79.42
81704;BME280;71117;52.352;4.808;2023-12-20T05:58:33;101507.31;;;8.37;79.57
81704;BME280;71117;52.352;4.808;2023-12-20T06:00:59;101490.41;;;8.32;80.14
81704;BME280;71117;52.352;4.808;2023-12-20T06:03:24;101491.31;;;8.33;80.08
81704;BME280;71117;52.352;4.808;2023-12-20T06:05:49;101488.69;;;8.33;81.07
81704;BME280;71117;52.352;4.808;2023-12-20T06:08:15;101486.03;;;8.33;80.14
81704;BME280;71117;52.352;4.808;2023-12-20T06:10:40;101486.75;;;8.29;80.50
81704;BME280;71117;52.352;4.808;2023-12-20T06:13:05;101484.19;;;8.30;80.61
81704;BME280;71117;52.352;4.808;2023-12-20T06:15:32;101489.34;;;8.27;80.37
81704;BME280;71117;52.352;4.808;2023-12-20T06:17:57;101504.69;;;8.37;80.17
81704;BME280;71117;52.352;4.808;2023-12-20T06:20:23;101499.16;;;8.31;80.78
81704;BME280;71117;52.352;4.808;2023-12-20T06:22:48;101511.50;;;8.34;80.51
81704;BME280;71117;52.352;4.808;2023-12-20T06:25:13;101498.53;;;8.37;80.23
81704;BME280;71117;52.352;4.808;2023-12-20T06:27:39;101502.97;;;8.39;80.63
81704;BME280;71117;52.352;4.808;2023-12-20T06:30:06;101503.66;;;8.35;80.96
81704;BME280;71117;52.352;4.808;2023-12-20T06:32:32;101505.53;;;8.36;81.34
81704;BME280;71117;52.352;4.808;2023-12-20T06:34:57;101495.63;;;8.31;80.78
81704;BME280;71117;52.352;4.808;2023-12-20T06:37:23;101501.03;;;8.35;80.57
81704;BME280;71117;52.352;4.808;2023-12-20T06:39:48;101503.22;;;8.45;81.10
81704;BME280;71117;52.352;4.808;2023-12-20T06:42:13;101497.72;;;8.39;80.21
81704;BME280;71117;52.352;4.808;2023-12-20T06:44:38;101494.25;;;8.40;80.11
81704;BME280;71117;52.352;4.808;2023-12-20T06:47:04;101488.09;;;8.40;80.39
81704;BME280;71117;52.352;4.808;2023-12-20T06:49:30;101498.56;;;8.38;80.23
81704;BME280;71117;52.352;4.808;2023-12-20T06:51:55;101484.94;;;8.26;80.96
81704;BME280;71117;52.352;4.808;2023-12-20T06:54:20;101495.78;;;8.35;81.01
81704;BME280;71117;52.352;4.808;2023-12-20T06:56:47;101486.88;;;8.32;81.00
81704;BME280;71117;52.352;4.808;2023-12-20T06:59:12;101487.00;;;8.35;81.21
81704;BME280;71117;52.352;4.808;2023-12-20T07:01:38;101478.28;;;8.36;80.57
81704;BME280;71117;52.352;4.808;2023-12-20T07:04:03;101473.66;;;8.30;81.34
81704;BME280;71117;52.352;4.808;2023-12-20T07:06:29;101476.41;;;8.33;81.05
81704;BME280;71117;52.352;4.808;2023-12-20T07:08:54;101473.03;;;8.36;81.06
81704;BME280;71117;52.352;4.808;2023-12-20T07:11:19;101479.94;;;8.34;80.81
81704;BME280;71117;52.352;4.808;2023-12-20T07:13:45;101475.16;;;8.46;80.52
81704;BME280;71117;52.352;4.808;2023-12-20T07:16:10;101480.41;;;8.46;80.24
81704;BME280;71117;52.352;4.808;2023-12-20T07:18:35;101471.38;;;8.38;81.13
81704;BME280;71117;52.352;4.808;2023-12-20T07:21:00;101478.53;;;8.42;80.69
81704;BME280;71117;52.352;4.808;2023-12-20T07:23:26;101480.78;;;8.33;80.60
81704;BME280;71117;52.352;4.808;2023-12-20T07:25:51;101485.91;;;8.30;80.89
81704;BME280;71117;52.352;4.808;2023-12-20T07:28:17;101477.22;;;8.31;80.93
81704;BME280;71117;52.352;4.808;2023-12-20T07:30:42;101468.72;;;8.38;80.43
81704;BME280;71117;52.352;4.808;2023-12-20T07:33:08;101473.19;;;8.40;80.35
81704;BME280;71117;52.352;4.808;2023-12-20T07:35:34;101471.47;;;8.41;80.26
81704;BME280;71117;52.352;4.808;2023-12-20T07:38:00;101479.34;;;8.41;80.49
81704;BME280;71117;52.352;4.808;2023-12-20T07:40:25;101489.78;;;8.38;80.95
81704;BME280;71117;52.352;4.808;2023-12-20T07:42:51;101475.81;;;8.40;80.49
81704;BME280;71117;52.352;4.808;2023-12-20T07:45:17;101493.66;;;8.47;80.42
81704;BME280;71117;52.352;4.808;2023-12-20T07:47:42;101490.28;;;8.52;80.12
81704;BME280;71117;52.352;4.808;2023-12-20T07:50:07;101496.66;;;8.58;80.33
81704;BME280;71117;52.352;4.808;2023-12-20T07:52:33;101491.25;;;8.54;80.92
81704;BME280;71117;52.352;4.808;2023-12-20T07:54:58;101506.41;;;8.61;79.91
81704;BME280;71117;52.352;4.808;2023-12-20T07:57:23;101511.72;;;8.62;79.99
81704;BME280;71117;52.352;4.808;2023-12-20T07:59:49;101502.25;;;8.67;79.96
81704;BME280;71117;52.352;4.808;2023-12-20T08:02:14;101517.28;;;8.70;80.10
81704;BME280;71117;52.352;4.808;2023-12-20T08:04:40;101507.63;;;8.70;80.13
81704;BME280;71117;52.352;4.808;2023-12-20T08:07:06;101505.91;;;8.71;80.12
81704;BME280;71117;52.352;4.808;2023-12-20T08:09:34;101509.50;;;8.74;80.29
81704;BME280;71117;52.352;4.808;2023-12-20T08:12:01;101513.22;;;8.80;79.71
81704;BME280;71117;52.352;4.808;2023-12-20T08:14:27;101501.97;;;8.84;79.45
81704;BME280;71117;52.352;4.808;2023-12-20T08:16:52;101496.84;;;8.88;79.55
81704;BME280;71117;52.352;4.808;2023-12-20T08:19:18;101498.59;;;8.88;79.59
81704;BME280;71117;52.352;4.808;2023-12-20T08:21:43;101501.31;;;8.91;79.14
81704;BME280;71117;52.352;4.808;2023-12-20T08:24:08;101493.63;;;8.97;79.03
81704;BME280;71117;52.352;4.808;2023-12-20T08:26:34;101493.97;;;9.06;78.66
81704;BME280;71117;52.352;4.808;2023-12-20T08:28:59;101483.91;;;8.94;78.81
81704;BME280;71117;52.352;4.808;2023-12-20T08:31:24;101492.03;;;9.02;78.55
81704;BME280;71117;52.352;4.808;2023-12-20T08:33:51;101483.78;;;8.91;78.82
81704;BME280;71117;52.352;4.808;2023-12-20T08:36:18;101502.81;;;8.83;79.20
81704;BME280;71117;52.352;4.808;2023-12-20T08:38:43;101510.91;;;8.89;79.43
81704;BME280;71117;52.352;4.808;2023-12-20T08:41:09;101514.50;;;8.91;79.04
81704;BME280;71117;52.352;4.808;2023-12-20T08:43:34;101514.69;;;8.97;78.75
81704;BME280;71117;52.352;4.808;2023-12-20T08:46:01;101498.97;;;8.98;79.16
81704;BME280;71117;52.352;4.808;2023-12-20T08:48:26;101515.75;;;9.02;79.08
81704;BME280;71117;52.352;4.808;2023-12-20T08:50:51;101522.75;;;9.01;79.26
81704;BME280;71117;52.352;4.808;2023-12-20T08:53:20;101521.78;;;8.98;78.85
81704;BME280;71117;52.352;4.808;2023-12-20T08:55:46;101519.03;;;8.95;79.49
81704;BME280;71117;52.352;4.808;2023-12-20T08:58:12;101513.94;;;8.99;79.67
81704;BME280;71117;52.352;4.808;2023-12-20T09:00:37;101518.38;;;9.02;79.53
81704;BME280;71117;52.352;4.808;2023-12-20T09:03:04;101507.81;;;9.00;79.77
81704;BME280;71117;52.352;4.808;2023-12-20T09:05:29;101504.06;;;8.94;79.64
81704;BME280;71117;52.352;4.808;2023-12-20T09:07:55;101492.22;;;9.07;79.56
81704;BME280;71117;52.352;4.808;2023-12-20T09:10:20;101499.38;;;9.11;79.74
81704;BME280;71117;52.352;4.808;2023-12-20T09:12:51;101494.13;;;9.11;79.89
81704;BME280;71117;52.352;4.808;2023-12-20T09:15:19;101496.03;;;9.15;79.81
81704;BME280;71117;52.352;4.808;2023-12-20T09:17:44;101501.28;;;9.15;79.45
81704;BME280;71117;52.352;4.808;2023-12-20T09:20:11;101495.31;;;9.20;79.78
81704;BME280;71117;52.352;4.808;2023-12-20T09:22:38;101509.44;;;9.22;79.76
81704;BME280;71117;52.352;4.808;2023-12-20T09:25:05;101492.69;;;9.20;79.41
81704;BME280;71117;52.352;4.808;2023-12-20T09:27:30;101520.03;;;9.24;79.18
81704;BME280;71117;52.352;4.808;2023-12-20T09:29:56;101503.47;;;9.28;78.48
81704;BME280;71117;52.352;4.808;2023-12-20T09:32:21;101499.22;;;9.32;78.32
81704;BME280;71117;52.352;4.808;2023-12-20T09:34:49;101499.41;;;9.38;78.14
81704;BME280;71117;52.352;4.808;2023-12-20T09:37:15;101498.16;;;9.26;78.38
81704;BME280;71117;52.352;4.808;2023-12-20T09:39:40;101489.66;;;9.35;78.60
81704;BME280;71117;52.352;4.808;2023-12-20T09:42:06;101489.81;;;9.40;79.06
81704;BME280;71117;52.352;4.808;2023-12-20T09:44:33;101507.38;;;9.39;79.03
81704;BME280;71117;52.352;4.808;2023-12-20T09:47:03;101509.84;;;9.35;79.69
81704;BME280;71117;52.352;4.808;2023-12-20T09:49:30;101509.69;;;9.30;79.71
81704;BME280;71117;52.352;4.808;2023-12-20T09:51:56;101520.53;;;9.39;78.55
81704;BME280;71117;52.352;4.808;2023-12-20T09:54:22;101515.31;;;9.41;78.99
81704;BME280;71117;52.352;4.808;2023-12-20T09:56:48;101522.50;;;9.19;79.47
81704;BME280;71117;52.352;4.808;2023-12-20T09:59:14;101509.81;;;9.08;80.09
81704;BME280;71117;52.352;4.808;2023-12-20T10:01:40;101512.41;;;9.06;80.36
81704;BME280;71117;52.352;4.808;2023-12-20T10:04:08;101503.22;;;9.20;79.55
81704;BME280;71117;52.352;4.808;2023-12-20T10:06:36;101516.03;;;9.37;79.20
81704;BME280;71117;52.352;4.808;2023-12-20T10:09:01;101508.59;;;9.77;77.69
81704;BME280;71117;52.352;4.808;2023-12-20T10:11:27;101512.31;;;9.84;78.24
81704;BME280;71117;52.352;4.808;2023-12-20T10:13:59;101507.13;;;9.87;76.94
81704;BME280;71117;52.352;4.808;2023-12-20T10:16:26;101501.91;;;10.17;76.35
81704;BME280;71117;52.352;4.808;2023-12-20T10:18:53;101495.88;;;10.21;74.69
81704;BME280;71117;52.352;4.808;2023-12-20T10:21:18;101502.06;;;10.52;73.53
81704;BME280;71117;52.352;4.808;2023-12-20T10:23:44;101511.25;;;10.98;71.60
81704;BME280;71117;52.352;4.808;2023-12-20T10:26:09;101505.97;;;11.32;70.20
81704;BME280;71117;52.352;4.808;2023-12-20T10:28:35;101501.00;;;10.45;73.51
81704;BME280;71117;52.352;4.808;2023-12-20T10:31:00;101512.41;;;10.16;74.21
81704;BME280;71117;52.352;4.808;2023-12-20T10:33:27;101491.34;;;10.17;73.55
81704;BME280;71117;52.352;4.808;2023-12-20T10:35:54;101505.31;;;11.06;71.25
81704;BME280;71117;52.352;4.808;2023-12-20T10:38:20;101499.00;;;11.01;69.60
81704;BME280;71117;52.352;4.808;2023-12-20T10:40:46;101497.75;;;10.87;70.49
81704;BME280;71117;52.352;4.808;2023-12-20T10:43:12;101483.84;;;11.65;68.48
81704;BME280;71117;52.352;4.808;2023-12-20T10:45:38;101471.69;;;11.35;68.90
81704;BME280;71117;52.352;4.808;2023-12-20T10:48:04;101495.75;;;11.11;70.06
81704;BME280;71117;52.352;4.808;2023-12-20T10:50:30;101473.03;;;11.56;69.92
81704;BME280;71117;52.352;4.808;2023-12-20T10:52:57;101469.41;;;11.51;69.60
81704;BME280;71117;52.352;4.808;2023-12-20T10:55:23;101466.53;;;11.42;70.26
81704;BME280;71117;52.352;4.808;2023-12-20T10:57:54;101473.56;;;11.41;70.00
81704;BME280;71117;52.352;4.808;2023-12-20T11:00:24;101466.16;;;11.26;71.33
81704;BME280;71117;52.352;4.808;2023-12-20T11:02:50;101455.59;;;11.28;70.07
81704;BME280;71117;52.352;4.808;2023-12-20T11:05:40;101475.88;;;10.93;71.63
81704;BME280;71117;52.352;4.808;2023-12-20T11:11:14;101467.41;;;10.11;75.10
81704;BME280;71117;52.352;4.808;2023-12-20T11:13:59;101469.00;;;10.04;75.45
81704;BME280;71117;52.352;4.808;2023-12-20T11:16:26;101467.28;;;10.06;75.44
81704;BME280;71117;52.352;4.808;2023-12-20T11:18:51;101467.59;;;10.17;75.22
81704;BME280;71117;52.352;4.808;2023-12-20T11:21:16;101461.00;;;10.03;75.83
81704;BME280;71117;52.352;4.808;2023-12-20T11:23:42;101471.91;;;9.85;76.43
81704;BME280;71117;52.352;4.808;2023-12-20T11:26:07;101465.75;;;9.85;77.52
81704;BME280;71117;52.352;4.808;2023-12-20T11:28:34;101473.88;;;9.92;76.56
81704;BME280;71117;52.352;4.808;2023-12-20T11:31:01;101459.47;;;9.81;77.40
81704;BME280;71117;52.352;4.808;2023-12-20T11:33:45;101455.75;;;9.74;77.15
81704;BME280;71117;52.352;4.808;2023-12-20T11:36:18;101445.44;;;9.82;76.83
81704;BME280;71117;52.352;4.808;2023-12-20T11:38:58;101456.44;;;9.97;76.60
81704;BME280;71117;52.352;4.808;2023-12-20T11:41:25;101454.88;;;10.04;75.93
81704;BME280;71117;52.352;4.808;2023-12-20T11:43:53;101453.59;;;9.90;76.75
81704;BME280;71117;52.352;4.808;2023-12-20T11:46:18;101447.06;;;9.77;77.26
81704;BME280;71117;52.352;4.808;2023-12-20T11:48:44;101434.09;;;9.85;77.78
81704;BME280;71117;52.352;4.808;2023-12-20T11:51:13;101425.41;;;9.89;77.43
81704;BME280;71117;52.352;4.808;2023-12-20T11:53:41;101444.69;;;9.86;78.25
81704;BME280;71117;52.352;4.808;2023-12-20T11:56:10;101443.72;;;9.83;77.83
81704;BME280;71117;52.352;4.808;2023-12-20T11:58:35;101442.94;;;9.87;77.89
81704;BME280;71117;52.352;4.808;2023-12-20T12:01:01;101450.66;;;9.80;77.49
81704;BME280;71117;52.352;4.808;2023-12-20T12:03:29;101452.50;;;9.83;77.68
81704;BME280;71117;52.352;4.808;2023-12-20T12:05:55;101447.84;;;9.74;78.65
81704;BME280;71117;52.352;4.808;2023-12-20T12:08:20;101449.53;;;9.72;78.20
81704;BME280;71117;52.352;4.808;2023-12-20T12:10:46;101447.09;;;9.78;77.91
81704;BME280;71117;52.352;4.808;2023-12-20T12:13:11;101442.75;;;9.80;77.48
81704;BME280;71117;52.352;4.808;2023-12-20T12:15:37;101420.03;;;9.86;77.54
81704;BME280;71117;52.352;4.808;2023-12-20T12:18:06;101432.38;;;9.87;77.63
81704;BME280;71117;52.352;4.808;2023-12-20T12:20:32;101420.94;;;9.86;77.57
81704;BME280;71117;52.352;4.808;2023-12-20T12:23:02;101422.72;;;9.87;78.25
81704;BME280;71117;52.352;4.808;2023-12-20T12:25:29;101406.72;;;9.81;78.39
81704;BME280;71117;52.352;4.808;2023-12-20T12:27:56;101396.47;;;9.92;77.70
81704;BME280;71117;52.352;4.808;2023-12-20T12:30:21;101402.66;;;9.92;77.87
81704;BME280;71117;52.352;4.808;2023-12-20T12:32:47;101408.53;;;9.82;78.54
81704;BME280;71117;52.352;4.808;2023-12-20T12:35:13;101396.88;;;9.75;78.45
81704;BME280;71117;52.352;4.808;2023-12-20T12:37:40;101400.50;;;9.79;78.22
81704;BME280;71117;52.352;4.808;2023-12-20T12:40:14;101396.97;;;9.78;78.11
81704;BME280;71117;52.352;4.808;2023-12-20T12:42:40;101406.38;;;9.70;78.47
81704;BME280;71117;52.352;4.808;2023-12-20T12:45:07;101395.81;;;9.69;78.01
81704;BME280;71117;52.352;4.808;2023-12-20T12:47:33;101392.13;;;9.64;78.31
81704;BME280;71117;52.352;4.808;2023-12-20T12:49:58;101386.94;;;9.65;78.43
81704;BME280;71117;52.352;4.808;2023-12-20T12:52:24;101384.59;;;9.76;77.61
81704;BME280;71117;52.352;4.808;2023-12-20T12:54:52;101383.63;;;9.72;77.54
81704;BME280;71117;52.352;4.808;2023-12-20T12:57:17;101376.56;;;9.71;77.88